Uvarovo, Russia
Current Conditions -  °F | °C
As of 1:00 PM on Saturday 22 Nov 2014 (Local Time) from UUOO Reporting Station
Haze Haze  
Wind Chill: 21°   Ceiling: 400
Heat Index: 21°   Visibility: 3mi
Dew Point: 19°   Wind: 2mph
Humidity: 93%   Direction: NA
Pressure: 30.42"   Gusts: NA
Location:  51.99°N, 42.26°E
Report Text: UUOO 221000Z VRB01MPS 5000 BR OVC004 M06/M07 Q1030 NOSIG RMK30190060
Loading
Personal Weather Stations






























Interactive Weather Map New forecast layout! Learn more

10-Day Weather Forecast

Advertisements
Track Severe Weather on mobile